»·PEaware :: N290T KLNK-KLBF

N290T :: KLNK-KLBF

FLIGHT INFORMATION

Flight Status: Arrived
Operator: Privately registered:
United States
More flights under this callsign
Pilot: Andrew F. (4171)
Aircraft: BEECH AIRCRAFT BARON
(BE58)
More flights by this aircraft type
Origin: KLNK Lincoln Mun
United States
Destination: KLBF North Platte Regl-Bird
United States
More flights between these airports :: More routes between these airports
Route: RAGAR
File this flight plan on PilotEdge
Remarks:
Altitude:
(Current/Filed)
8,500ft
Speed:
(Current/Filed)
160kts
Departed: 30-Jun-19 07:41 AM
Arrived: 30-Jun-19 08:45 AM
Distance/Time
Traveled:
179nm/1:03
Distance/Time
To Go:
Arrived

Flight Plot

Page will automatically refresh every two minutes.

Flight plan parsing failed; only flown route is shown


Map Options




Map Legend


Flown Route
Filed Route
Departure Airport
Arrival Airport
Navaid (VOR, NDB)
Fix

Horizontal Profiles

Position Reports

Time Latitude Longitude Heading Altitude Ground
Speed
30-Jun-19 07:00 40.849995 -96.748387 359 1223ft 0kts
30-Jun-19 07:01 40.849995 -96.748387 359 1223ft 0kts
30-Jun-19 07:02 40.849995 -96.748387 359 1223ft 0kts
30-Jun-19 07:03 40.849995 -96.748387 359 1223ft 0kts
30-Jun-19 07:03 40.849995 -96.748387 359 1223ft 0kts
30-Jun-19 07:05 40.849995 -96.748387 359 1223ft 0kts
30-Jun-19 07:05 40.849995 -96.748387 359 1223ft 0kts
30-Jun-19 07:09 40.849995 -96.748387 359 1223ft 0kts
30-Jun-19 07:10 40.849995 -96.748387 359 1223ft 0kts
30-Jun-19 07:11 40.849995 -96.748387 358 1223ft 0kts
30-Jun-19 07:13 40.849995 -96.748387 358 1223ft 0kts
30-Jun-19 07:13 40.849995 -96.748387 358 1223ft 0kts
30-Jun-19 07:18 40.849995 -96.748387 359 1223ft 0kts
30-Jun-19 07:19 40.849995 -96.748387 359 1223ft 0kts
30-Jun-19 07:20 40.849995 -96.748387 359 1223ft 0kts
30-Jun-19 07:21 40.849995 -96.748387 359 1223ft 0kts
30-Jun-19 07:22 40.849995 -96.748387 359 1223ft 0kts
30-Jun-19 07:23 40.849995 -96.748387 359 1223ft 0kts
30-Jun-19 07:24 40.849995 -96.748387 359 1223ft 0kts
30-Jun-19 07:25 40.849995 -96.748387 359 1223ft 0kts
30-Jun-19 07:26 40.850054 -96.748409 330 1223ft 3kts
30-Jun-19 07:27 40.852732 -96.749548 358 1223ft 14kts
30-Jun-19 07:28 40.858105 -96.749510 358 1223ft 21kts
30-Jun-19 07:29 40.861077 -96.749243 286 1223ft 0kts
30-Jun-19 07:30 40.861077 -96.749243 286 1223ft 0kts
30-Jun-19 07:31 40.861077 -96.749243 286 1223ft 0kts
30-Jun-19 07:32 40.861077 -96.749243 286 1223ft 0kts
30-Jun-19 07:33 40.861077 -96.749243 286 1223ft 0kts
30-Jun-19 07:34 40.861077 -96.749243 286 1223ft 0kts
30-Jun-19 07:35 40.861077 -96.749243 286 1223ft 0kts
30-Jun-19 07:36 40.861077 -96.749243 286 1223ft 0kts
30-Jun-19 07:37 40.861077 -96.749243 287 1223ft 0kts
30-Jun-19 07:38 40.861077 -96.749243 286 1223ft 0kts
30-Jun-19 07:39 40.861053 -96.750760 177 1223ft 0kts
30-Jun-19 07:40 40.838754 -96.750985 190 1958ft 115kts
30-Jun-19 07:41 40.833922 -96.786503 277 3595ft 119kts
30-Jun-19 07:42 40.840035 -96.829583 280 5120ft 124kts
30-Jun-19 07:43 40.849041 -96.875663 280 6458ft 133kts
30-Jun-19 07:44 40.859229 -96.925095 281 7639ft 142kts
30-Jun-19 07:45 40.868816 -96.978889 276 8470ft 162kts
30-Jun-19 07:46 40.874933 -97.044140 273 8522ft 188kts
30-Jun-19 07:47 40.879095 -97.113930 271 8491ft 191kts
30-Jun-19 07:48 40.883796 -97.183591 275 8515ft 190kts
30-Jun-19 07:49 40.892059 -97.252556 278 8513ft 190kts
30-Jun-19 07:50 40.899641 -97.321550 273 8509ft 189kts
30-Jun-19 07:51 40.906179 -97.390835 275 8495ft 189kts
30-Jun-19 07:52 40.912048 -97.460194 273 8492ft 189kts
30-Jun-19 07:53 40.917887 -97.529404 273 8491ft 189kts
30-Jun-19 07:54 40.924516 -97.598558 278 8490ft 190kts
30-Jun-19 07:55 40.934582 -97.667168 272 8489ft 189kts
30-Jun-19 07:56 40.936233 -97.736700 269 8492ft 188kts
30-Jun-19 07:57 40.940634 -97.805891 272 8499ft 188kts
30-Jun-19 07:58 40.946652 -97.874770 275 8508ft 188kts
30-Jun-19 07:59 40.951528 -97.943553 274 8516ft 188kts
30-Jun-19 08:00 40.956433 -98.012695 270 8519ft 188kts
30-Jun-19 08:01 40.960109 -98.081996 272 8519ft 188kts
30-Jun-19 08:02 40.964083 -98.151345 271 8477ft 190kts
30-Jun-19 08:03 40.971939 -98.220772 279 8471ft 190kts
30-Jun-19 08:04 40.975296 -98.290369 270 8459ft 189kts
30-Jun-19 08:05 40.981008 -98.359785 274 8453ft 189kts
30-Jun-19 08:06 40.984904 -98.429295 270 8449ft 189kts
30-Jun-19 08:07 40.987218 -98.498830 270 8447ft 188kts
30-Jun-19 08:08 40.989735 -98.568315 270 8445ft 188kts
30-Jun-19 08:09 40.991722 -98.637820 272 8445ft 188kts
30-Jun-19 08:10 40.995822 -98.705874 271 8449ft 188kts
30-Jun-19 08:11 41.000638 -98.774781 271 8454ft 188kts
30-Jun-19 08:12 41.001591 -98.843924 271 8458ft 187kts
30-Jun-19 08:13 41.006621 -98.912686 271 8468ft 187kts
30-Jun-19 08:14 41.009961 -98.981514 270 8477ft 187kts
30-Jun-19 08:15 41.013746 -99.050468 271 8489ft 187kts
30-Jun-19 08:16 41.019437 -99.119242 273 8501ft 187kts
30-Jun-19 08:17 41.024874 -99.187617 272 8507ft 187kts
30-Jun-19 08:18 41.027542 -99.256491 270 8516ft 186kts
30-Jun-19 08:19 41.034546 -99.324775 275 8516ft 188kts
30-Jun-19 08:20 41.035139 -99.393746 272 8446ft 189kts
30-Jun-19 08:21 41.039166 -99.463056 271 8424ft 188kts
30-Jun-19 08:22 41.044773 -99.532458 273 8364ft 189kts
30-Jun-19 08:23 41.051730 -99.600846 274 8431ft 185kts
30-Jun-19 08:24 41.057583 -99.668839 272 8469ft 185kts
30-Jun-19 08:25 41.064614 -99.736887 276 8493ft 186kts
30-Jun-19 08:26 41.075289 -99.803795 281 8527ft 186kts
30-Jun-19 08:27 41.092390 -99.868777 273 8508ft 186kts
30-Jun-19 08:28 41.077192 -99.930423 236 8425ft 179kts
30-Jun-19 08:29 41.048493 -99.991654 233 7349ft 197kts
30-Jun-19 08:30 41.016260 -100.049143 228 6511ft 194kts
30-Jun-19 08:31 40.993007 -100.110259 259 5920ft 191kts
30-Jun-19 08:32 40.987879 -100.180148 263 5310ft 190kts
30-Jun-19 08:33 40.980285 -100.248456 256 4895ft 186kts
30-Jun-19 08:34 40.969899 -100.314435 256 4685ft 179kts
30-Jun-19 08:35 40.964435 -100.378228 294 4702ft 175kts
30-Jun-19 08:36 40.993302 -100.429546 308 4863ft 173kts
30-Jun-19 08:37 41.022405 -100.480777 302 4962ft 174kts
30-Jun-19 08:38 41.050298 -100.533310 306 5056ft 174kts
30-Jun-19 08:39 41.084628 -100.583331 312 4354ft 185kts
30-Jun-19 08:40 41.117385 -100.633066 306 3816ft 170kts
30-Jun-19 08:41 41.144631 -100.677669 307 3679ft 133kts
30-Jun-19 08:42 41.146800 -100.709782 172 3225ft 115kts
30-Jun-19 08:43 41.127616 -100.681730 127 2770ft 60kts
30-Jun-19 08:44 41.125261 -100.679398 215 2769ft 0kts
30-Jun-19 08:45 41.125178 -100.680994 305 2770ft 17kts
30-Jun-19 08:46 41.129122 -100.688189 305 2773ft 26kts
30-Jun-19 08:47 41.131111 -100.695195 270 2776ft 19kts
30-Jun-19 08:48 41.131846 -100.696854 89 2777ft 0kts
30-Jun-19 08:49 41.131846 -100.696854 89 2777ft 0kts

Navigation Log

Ident Type
Flight plan parsing failed, navigation log unavailable